e-Mail: Password: Lost your password? Click here. - Register a new user

c h a v e z j u a r e z . c o m

Weather - Tiempo - Wetter - Temps

METAR DATA MMMX (Mexico City)

Mexico City / Licenci, Mexico (MMMX) 19-26N 099-06W
May 21, 2018 - 09:45 PM EDT / 2018.05.22 0145 UTC
Wind: from the NW (320 degrees) at 6 MPH (5 KT):0
Visibility: 6 mile(s):0
Sky conditions: mostly cloudy
Weather: Cumulonimbus clouds observed
Temperature: 64 F (18 C)
Dew Point: 53 F (12 C)
Relative Humidity: 67%
Pressure (altimeter): 30.26 in. Hg (1024 hPa)
ob: MMMX 220145Z 32005KT 6SM SCT020CB BKN080 BKN200 18/12 A3026 TEMPO 4SM TSRA RMK 60065 8/963 HZY SC
cycle: 2

Mexico City

St. Prex




Current weather alarms for Switzerland


www.wetteralarm.ch